createdAt,value
2018-03-16T00:01:51.538Z,1.20
2018-03-16T00:04:18.594Z,1.20
2018-03-16T00:06:45.550Z,1.20
2018-03-16T00:09:11.894Z,1.10
2018-03-16T00:11:38.198Z,1.20
2018-03-16T00:14:05.248Z,1.20
2018-03-16T00:16:31.502Z,1.20
2018-03-16T00:18:57.753Z,1.20
2018-03-16T00:21:24.156Z,1.20
2018-03-16T00:23:50.357Z,1.20
2018-03-16T00:26:17.330Z,1.30
2018-03-16T00:28:43.659Z,1.30
2018-03-16T00:31:09.834Z,1.30
2018-03-16T00:33:36.860Z,1.30
2018-03-16T00:36:03.126Z,1.30
2018-03-16T00:38:30.133Z,1.40
2018-03-16T00:40:56.389Z,1.40
2018-03-16T00:43:23.571Z,1.40
2018-03-16T00:45:49.748Z,1.40
2018-03-16T00:48:16.882Z,1.50
2018-03-16T00:50:43.194Z,1.50
2018-03-16T00:53:09.640Z,1.50
2018-03-16T00:55:35.938Z,1.50
2018-03-16T00:58:02.290Z,1.60
2018-03-16T01:00:28.563Z,1.60
2018-03-16T01:02:55.520Z,1.60
2018-03-16T01:05:21.756Z,1.60
2018-03-16T01:07:47.935Z,1.60
2018-03-16T01:10:15.677Z,1.70
2018-03-16T01:12:42.052Z,1.70
2018-03-16T01:15:09.540Z,1.70
2018-03-16T01:17:35.836Z,1.70
2018-03-16T01:20:02.827Z,1.70
2018-03-16T01:22:29.011Z,1.70
2018-03-16T01:24:55.280Z,1.70
2018-03-16T01:27:21.594Z,1.60
2018-03-16T01:29:47.875Z,1.60
2018-03-16T01:32:14.934Z,1.60
2018-03-16T01:34:42.046Z,1.50
2018-03-16T01:37:08.274Z,1.50
2018-03-16T01:39:34.529Z,1.50
2018-03-16T01:42:01.703Z,1.40
2018-03-16T01:44:28.013Z,1.30
2018-03-16T01:46:55.027Z,1.30
2018-03-16T01:49:22.075Z,1.20
2018-03-16T01:51:48.309Z,1.20
2018-03-16T01:54:15.388Z,1.10
2018-03-16T01:56:41.749Z,1.10
2018-03-16T01:59:08.098Z,1.10
2018-03-16T02:01:36.020Z,1.00
2018-03-16T02:04:02.410Z,1.00
2018-03-16T02:06:28.883Z,1.00
2018-03-16T02:08:55.257Z,1.00
2018-03-16T02:11:21.527Z,1.00
2018-03-16T02:13:48.531Z,0.90
2018-03-16T02:16:14.869Z,0.90
2018-03-16T02:18:41.192Z,0.90
2018-03-16T02:21:07.443Z,0.90
2018-03-16T02:23:33.762Z,0.90
2018-03-16T02:26:00.734Z,0.80
2018-03-16T02:28:27.077Z,0.80
2018-03-16T02:30:53.260Z,0.80
2018-03-16T02:33:19.541Z,0.80
2018-03-16T02:35:45.717Z,0.80
2018-03-16T02:38:13.375Z,0.80
2018-03-16T02:40:40.384Z,0.80
2018-03-16T02:43:06.667Z,0.80
2018-03-16T02:45:33.674Z,0.80
2018-03-16T02:47:59.925Z,0.80
2018-03-16T02:50:27.002Z,0.80
2018-03-16T02:52:53.208Z,0.80
2018-03-16T02:55:20.140Z,0.80
2018-03-16T02:57:46.397Z,0.80
2018-03-16T03:00:13.353Z,0.70
2018-03-16T03:02:39.597Z,0.70
2018-03-16T03:05:05.791Z,0.70
2018-03-16T03:07:32.889Z,0.70
2018-03-16T03:09:59.101Z,0.70
2018-03-16T03:12:25.270Z,0.70
2018-03-16T03:14:52.716Z,0.70
2018-03-16T03:17:20.590Z,0.60
2018-03-16T03:19:47.003Z,0.60
2018-03-16T03:22:13.215Z,0.60
2018-03-16T03:24:39.424Z,0.60
2018-03-16T03:27:05.793Z,0.60
2018-03-16T03:29:32.755Z,0.70
2018-03-16T03:31:59.740Z,0.70
2018-03-16T03:34:25.938Z,0.70
2018-03-16T03:36:52.914Z,0.70
2018-03-16T03:39:19.166Z,0.70
2018-03-16T03:41:45.342Z,0.70
2018-03-16T03:44:11.510Z,0.60
2018-03-16T03:46:37.752Z,0.70
2018-03-16T03:49:05.384Z,0.60
2018-03-16T03:51:31.642Z,0.60
2018-03-16T03:53:57.911Z,0.70
2018-03-16T03:56:24.231Z,0.60
2018-03-16T03:58:51.224Z,0.80
2018-03-16T04:01:17.386Z,0.70
2018-03-16T04:03:44.415Z,0.70
2018-03-16T04:06:10.567Z,0.70
2018-03-16T04:08:37.608Z,0.70
2018-03-16T04:11:04.652Z,0.60
2018-03-16T04:13:31.675Z,0.60
2018-03-16T04:15:57.875Z,0.60
2018-03-16T04:18:24.069Z,0.60
2018-03-16T04:20:50.392Z,0.60
2018-03-16T04:23:16.671Z,0.60
2018-03-16T04:25:43.662Z,0.70
2018-03-16T04:28:09.948Z,0.80
2018-03-16T04:30:36.272Z,0.80
2018-03-16T04:33:02.539Z,0.70
2018-03-16T04:35:29.426Z,0.70
2018-03-16T04:37:55.842Z,0.70
2018-03-16T04:40:22.062Z,0.70
2018-03-16T04:42:48.322Z,0.70
2018-03-16T04:45:14.638Z,0.70
2018-03-16T04:47:40.894Z,0.70
2018-03-16T04:50:07.212Z,0.70
2018-03-16T04:52:33.425Z,0.70
2018-03-16T04:54:59.678Z,0.70
2018-03-16T04:57:27.529Z,0.60
2018-03-16T04:59:53.735Z,0.60
2018-03-16T05:02:20.235Z,0.70
2018-03-16T05:04:46.421Z,0.70
2018-03-16T05:07:12.948Z,0.70
2018-03-16T05:09:39.119Z,0.70
2018-03-16T05:12:06.046Z,0.70
2018-03-16T05:14:32.450Z,0.70
2018-03-16T05:16:58.658Z,0.70
2018-03-16T05:19:24.887Z,0.70
2018-03-16T05:21:51.062Z,0.70
2018-03-16T05:24:18.021Z,0.70
2018-03-16T05:26:44.985Z,0.70
2018-03-16T05:29:11.139Z,0.70
2018-03-16T05:31:37.545Z,0.70
2018-03-16T05:34:03.766Z,0.60
2018-03-16T05:36:30.103Z,0.70
2018-03-16T05:38:56.264Z,0.70
2018-03-16T05:41:23.254Z,0.70
2018-03-16T05:43:49.508Z,0.70
2018-03-16T05:46:15.680Z,0.70
2018-03-16T05:48:42.762Z,0.70
2018-03-16T05:51:08.969Z,0.70
2018-03-16T05:53:36.133Z,0.80
2018-03-16T05:56:02.709Z,0.70
2018-03-16T05:58:29.081Z,0.80
2018-03-16T06:00:56.126Z,0.80
2018-03-16T06:03:22.371Z,0.80
2018-03-16T06:05:48.653Z,0.80
2018-03-16T06:08:16.471Z,0.80
2018-03-16T06:10:42.731Z,0.80
2018-03-16T06:13:09.205Z,0.80
2018-03-16T06:15:36.266Z,0.90
2018-03-16T06:18:02.476Z,0.80
2018-03-16T06:20:29.551Z,0.90
2018-03-16T06:22:55.764Z,0.90
2018-03-16T06:25:21.990Z,1.00
2018-03-16T06:27:48.201Z,0.90
2018-03-16T06:30:14.429Z,0.90
2018-03-16T06:32:40.818Z,0.90
2018-03-16T06:35:07.204Z,0.90
2018-03-16T06:37:33.579Z,1.00
2018-03-16T06:39:59.906Z,1.00
2018-03-16T06:42:26.070Z,1.00
2018-03-16T06:44:53.214Z,1.10
2018-03-16T06:47:19.409Z,1.10
2018-03-16T06:49:45.640Z,1.10
2018-03-16T06:52:11.972Z,1.20
2018-03-16T06:54:38.295Z,1.20
2018-03-16T06:57:04.588Z,1.20
2018-03-16T06:59:30.850Z,1.20
2018-03-16T07:01:57.018Z,1.20
2018-03-16T07:04:24.070Z,1.30
2018-03-16T07:06:50.243Z,1.30
2018-03-16T07:09:16.491Z,1.30
2018-03-16T07:11:42.667Z,1.40
2018-03-16T07:14:08.932Z,1.40
2018-03-16T07:16:35.265Z,1.40
2018-03-16T07:19:01.697Z,1.40
2018-03-16T07:21:27.908Z,1.40
2018-03-16T07:23:54.308Z,1.50
2018-03-16T07:26:20.629Z,1.50
2018-03-16T07:28:46.946Z,1.50
2018-03-16T07:31:13.918Z,1.60
2018-03-16T07:33:40.208Z,1.50
2018-03-16T07:36:07.365Z,1.70
2018-03-16T07:38:34.348Z,1.70
2018-03-16T07:41:00.547Z,1.70
2018-03-16T07:43:26.771Z,1.80
2018-03-16T07:45:59.279Z,1.90
2018-03-16T07:48:25.454Z,2.00
2018-03-16T07:50:52.568Z,2.20
2018-03-16T07:53:18.817Z,2.20
2018-03-16T07:55:45.018Z,2.30
2018-03-16T07:58:12.877Z,2.50
2018-03-16T08:00:54.170Z,2.50
2018-03-16T08:03:20.604Z,2.60
2018-03-16T08:05:46.987Z,2.60
2018-03-16T08:08:13.282Z,2.60
2018-03-16T08:10:40.272Z,2.40
2018-03-16T08:13:06.527Z,2.40
2018-03-16T08:15:33.080Z,2.50
2018-03-16T08:17:59.294Z,2.40
2018-03-16T08:20:25.628Z,2.50
2018-03-16T08:22:52.703Z,2.50
2018-03-16T08:25:19.623Z,2.60
2018-03-16T08:27:46.595Z,2.70
2018-03-16T08:30:12.902Z,2.70
2018-03-16T08:32:39.796Z,2.70
2018-03-16T08:35:06.128Z,2.70
2018-03-16T08:37:32.352Z,2.70
2018-03-16T08:39:58.817Z,2.80
2018-03-16T08:42:25.747Z,2.80
2018-03-16T08:44:52.096Z,2.80
2018-03-16T08:47:19.853Z,2.90
2018-03-16T08:49:47.560Z,2.90
2018-03-16T08:52:14.352Z,2.90
2018-03-16T08:54:40.676Z,3.00
2018-03-16T08:57:06.973Z,3.00
2018-03-16T08:59:33.189Z,3.00
2018-03-16T09:01:59.456Z,2.90
2018-03-16T09:04:25.699Z,3.00
2018-03-16T09:06:51.948Z,3.00
2018-03-16T09:09:18.992Z,3.00
2018-03-16T09:11:46.219Z,3.00
2018-03-16T09:14:12.510Z,3.00
2018-03-16T09:16:38.930Z,3.00
2018-03-16T09:19:05.320Z,2.90
2018-03-16T09:21:31.544Z,2.90
2018-03-16T09:23:59.482Z,2.90
2018-03-16T09:26:25.716Z,2.90
2018-03-16T09:28:52.171Z,2.90
2018-03-16T09:31:19.838Z,2.80
2018-03-16T09:33:46.195Z,2.80
2018-03-16T09:36:12.450Z,2.90
2018-03-16T09:38:38.758Z,2.90
2018-03-16T09:41:04.908Z,2.90
2018-03-16T09:43:31.133Z,2.80
2018-03-16T09:45:57.422Z,2.90
2018-03-16T09:48:24.439Z,3.00
2018-03-16T09:50:53.582Z,3.00
2018-03-16T09:53:28.623Z,2.90
2018-03-16T09:55:54.803Z,3.00
2018-03-16T09:58:21.004Z,3.00
2018-03-16T10:00:47.304Z,3.10
2018-03-16T10:03:13.619Z,3.00
2018-03-16T10:05:39.924Z,3.00
2018-03-16T10:08:06.993Z,3.00
2018-03-16T10:10:33.407Z,3.00
2018-03-16T10:13:00.352Z,2.90
2018-03-16T10:15:27.371Z,2.90
2018-03-16T10:17:54.457Z,2.90
2018-03-16T10:20:20.688Z,2.90
2018-03-16T10:22:47.055Z,2.90
2018-03-16T10:25:13.359Z,2.90
2018-03-16T10:27:39.826Z,3.00
2018-03-16T10:30:07.686Z,3.00
2018-03-16T10:32:33.994Z,3.00
2018-03-16T10:35:00.430Z,3.00
2018-03-16T10:37:26.703Z,3.00
2018-03-16T10:39:53.717Z,3.10
2018-03-16T10:42:20.279Z,3.00
2018-03-16T10:44:47.278Z,3.00
2018-03-16T10:47:13.598Z,3.00
2018-03-16T10:49:39.847Z,3.00
2018-03-16T10:52:06.065Z,3.10
2018-03-16T10:54:32.381Z,3.10
2018-03-16T10:56:58.651Z,3.20
2018-03-16T10:59:25.272Z,3.20
2018-03-16T11:01:54.612Z,3.20
2018-03-16T11:04:27.786Z,3.10
2018-03-16T11:07:00.155Z,3.10
2018-03-16T11:09:26.542Z,3.10
2018-03-16T11:11:52.831Z,3.00
2018-03-16T11:14:19.934Z,3.00
2018-03-16T11:16:46.183Z,2.90
2018-03-16T11:19:13.319Z,3.00
2018-03-16T11:21:39.509Z,2.90
2018-03-16T11:24:06.210Z,2.90
2018-03-16T11:26:33.277Z,2.90
2018-03-16T11:28:59.794Z,2.90
2018-03-16T11:31:26.911Z,2.90
2018-03-16T11:33:53.170Z,2.90
2018-03-16T11:36:20.130Z,3.10
2018-03-16T11:38:46.828Z,3.00
2018-03-16T11:41:13.165Z,3.10
2018-03-16T11:43:39.472Z,3.10
2018-03-16T11:46:05.847Z,3.10
2018-03-16T11:48:32.773Z,3.00
2018-03-16T11:50:59.817Z,3.00
2018-03-16T11:53:26.766Z,3.10
2018-03-16T11:55:53.765Z,3.10
2018-03-16T11:58:20.266Z,3.10
2018-03-16T12:00:46.755Z,3.10
2018-03-16T12:03:13.088Z,3.00
2018-03-16T12:05:40.841Z,3.00
2018-03-16T12:08:07.880Z,3.00
2018-03-16T12:10:34.172Z,2.90
2018-03-16T12:13:00.935Z,2.80
2018-03-16T12:15:27.389Z,2.80
2018-03-16T12:17:53.689Z,2.80
2018-03-16T12:20:20.044Z,2.70
2018-03-16T12:22:47.120Z,2.70
2018-03-16T12:25:14.418Z,2.60
2018-03-16T12:27:41.539Z,2.50
2018-03-16T12:30:07.986Z,2.50
2018-03-16T12:32:34.411Z,2.50
2018-03-16T12:35:00.883Z,2.50
2018-03-16T12:37:27.180Z,2.40
2018-03-16T12:39:53.758Z,2.40
2018-03-16T12:42:20.730Z,2.30
2018-03-16T12:44:47.729Z,2.30
2018-03-16T12:47:14.003Z,2.30
2018-03-16T12:49:40.899Z,2.20
2018-03-16T12:52:07.237Z,2.20
2018-03-16T12:54:33.482Z,2.20
2018-03-16T12:57:00.578Z,2.10
2018-03-16T12:59:26.821Z,2.10
2018-03-16T13:01:53.332Z,2.10
2018-03-16T13:04:19.638Z,2.10
2018-03-16T13:06:46.690Z,1.90
2018-03-16T13:09:13.752Z,1.80
2018-03-16T13:11:40.018Z,1.80
2018-03-16T13:14:07.954Z,1.70
2018-03-16T13:16:34.610Z,1.70
2018-03-16T13:19:01.039Z,1.70
2018-03-16T13:21:27.291Z,1.60
2018-03-16T13:23:53.603Z,1.60
2018-03-16T13:26:19.900Z,1.60
2018-03-16T13:28:46.273Z,1.50
2018-03-16T13:31:12.690Z,1.50
2018-03-16T13:33:39.027Z,1.50
2018-03-16T13:36:05.664Z,1.50
2018-03-16T13:38:32.237Z,1.40
2018-03-16T13:40:58.533Z,1.40
2018-03-16T13:43:24.973Z,1.40
2018-03-16T13:45:52.073Z,1.30
2018-03-16T13:48:18.513Z,1.30
2018-03-16T13:50:44.869Z,1.30
2018-03-16T13:53:11.603Z,1.20
2018-03-16T13:55:39.168Z,1.20
2018-03-16T13:58:05.403Z,1.20
2018-03-16T14:00:33.458Z,1.10
2018-03-16T14:02:59.785Z,1.10
2018-03-16T14:05:26.059Z,1.10
2018-03-16T14:07:53.035Z,1.10
2018-03-16T14:10:19.516Z,1.10
2018-03-16T14:12:46.741Z,1.10
2018-03-16T14:15:13.050Z,1.10
2018-03-16T14:17:39.404Z,1.10
2018-03-16T14:20:05.945Z,1.10
2018-03-16T14:22:32.281Z,1.10
2018-03-16T14:25:00.061Z,1.00
2018-03-16T14:27:27.083Z,1.00
2018-03-16T14:29:53.370Z,1.00
2018-03-16T14:32:19.640Z,0.90
2018-03-16T14:34:46.395Z,0.90
2018-03-16T14:37:13.438Z,0.90
2018-03-16T14:39:39.703Z,0.80
2018-03-16T14:42:05.931Z,0.80
2018-03-16T14:44:32.358Z,0.80
2018-03-16T14:46:58.645Z,0.70
2018-03-16T14:49:25.703Z,0.80
2018-03-16T14:51:52.707Z,0.80
2018-03-16T14:54:19.098Z,0.80
2018-03-16T14:56:46.094Z,0.80
2018-03-16T14:59:12.392Z,0.70
2018-03-16T15:01:38.816Z,0.70
2018-03-16T15:04:05.183Z,0.70
2018-03-16T15:06:31.392Z,0.70
2018-03-16T15:08:57.683Z,0.70
2018-03-16T15:11:24.660Z,0.60
2018-03-16T15:13:50.897Z,0.60
2018-03-16T15:16:17.146Z,0.60
2018-03-16T15:18:43.368Z,0.60
2018-03-16T15:21:09.816Z,0.60
2018-03-16T15:23:36.207Z,0.60
2018-03-16T15:26:02.553Z,0.60
2018-03-16T15:28:28.886Z,0.50
2018-03-16T15:30:55.215Z,0.50
2018-03-16T15:33:21.664Z,0.50
2018-03-16T15:35:48.054Z,0.40
2018-03-16T15:38:15.358Z,0.30
2018-03-16T15:40:41.851Z,0.30
2018-03-16T15:43:08.126Z,0.20
2018-03-16T15:45:35.156Z,0.10
2018-03-16T15:48:03.037Z,0.00
2018-03-16T15:50:30.155Z,0.00
2018-03-16T15:52:57.171Z,-0.10
2018-03-16T15:55:23.559Z,-0.10
2018-03-16T15:57:50.528Z,0.00
2018-03-16T16:00:17.120Z,0.00
2018-03-16T16:02:44.174Z,-0.10
2018-03-16T16:05:10.448Z,-0.10
2018-03-16T16:07:37.136Z,-0.10
2018-03-16T16:10:04.384Z,-0.20
2018-03-16T16:12:31.536Z,-0.20
2018-03-16T16:14:57.943Z,-0.20
2018-03-16T16:17:24.329Z,-0.20
2018-03-16T16:19:50.600Z,-0.20
2018-03-16T16:22:17.042Z,-0.20
2018-03-16T16:24:43.317Z,-0.20
2018-03-16T16:27:09.805Z,-0.20
2018-03-16T16:29:36.940Z,-0.30
2018-03-16T16:32:03.429Z,-0.40
2018-03-16T16:34:29.737Z,-0.40
2018-03-16T16:36:56.849Z,-0.40
2018-03-16T16:39:23.739Z,-0.40
2018-03-16T16:41:50.755Z,-0.50
2018-03-16T16:44:18.478Z,-0.50
2018-03-16T16:46:44.823Z,-0.50
2018-03-16T16:49:11.256Z,-0.50
2018-03-16T16:51:37.548Z,-0.50
2018-03-16T16:54:03.814Z,-0.60
2018-03-16T16:56:30.206Z,-0.60
2018-03-16T16:58:56.475Z,-0.60
2018-03-16T17:01:22.895Z,-0.70
2018-03-16T17:03:49.352Z,-0.70
2018-03-16T17:06:16.416Z,-0.80
2018-03-16T17:08:43.428Z,-0.80
2018-03-16T17:11:09.668Z,-0.90
2018-03-16T17:13:36.059Z,-0.90
2018-03-16T17:16:02.417Z,-0.90
2018-03-16T17:18:28.724Z,-0.90
2018-03-16T17:20:55.073Z,-0.90
2018-03-16T17:23:21.417Z,-0.90
2018-03-16T17:25:48.441Z,-0.90
2018-03-16T17:28:14.719Z,-0.90
2018-03-16T17:30:55.890Z,-0.90
2018-03-16T17:33:22.909Z,-1.00
2018-03-16T17:35:50.006Z,-1.00
2018-03-16T17:38:16.436Z,-1.00
2018-03-16T17:40:42.809Z,-1.00
2018-03-16T17:43:09.018Z,-1.10
2018-03-16T17:45:35.547Z,-1.10
2018-03-16T17:48:01.780Z,-1.20
2018-03-16T17:50:28.014Z,-1.20
2018-03-16T17:52:54.557Z,-1.20
2018-03-16T17:55:20.928Z,-1.20
2018-03-16T17:57:48.019Z,-1.30
2018-03-16T18:00:14.270Z,-1.30
2018-03-16T18:02:42.256Z,-1.30
2018-03-16T18:05:09.295Z,-1.30
2018-03-16T18:07:51.300Z,-1.30
2018-03-16T18:10:18.259Z,-1.30
2018-03-16T18:12:44.620Z,-1.30
2018-03-16T18:15:10.949Z,-1.30
2018-03-16T18:17:37.410Z,-1.30
2018-03-16T18:20:03.756Z,-1.30
2018-03-16T18:22:30.311Z,-1.30
2018-03-16T18:24:58.320Z,-1.30
2018-03-16T18:27:24.751Z,-1.30
2018-03-16T18:29:51.094Z,-1.30
2018-03-16T18:32:17.422Z,-1.30
2018-03-16T18:34:43.655Z,-1.40
2018-03-16T18:37:10.134Z,-1.40
2018-03-16T18:39:37.249Z,-1.50
2018-03-16T18:42:03.559Z,-1.50
2018-03-16T18:44:30.423Z,-1.50
2018-03-16T18:46:57.413Z,-1.50
2018-03-16T18:49:23.728Z,-1.50
2018-03-16T18:51:50.058Z,-1.60
2018-03-16T18:54:16.285Z,-1.60
2018-03-16T18:56:42.619Z,-1.60
2018-03-16T18:59:08.992Z,-1.60
2018-03-16T19:01:36.242Z,-1.60
2018-03-16T19:04:03.332Z,-1.70
2018-03-16T19:06:30.523Z,-1.70
2018-03-16T19:08:56.952Z,-1.70
2018-03-16T19:11:23.290Z,-1.70
2018-03-16T19:13:49.732Z,-1.80
2018-03-16T19:16:16.234Z,-1.80
2018-03-16T19:18:42.675Z,-1.80
2018-03-16T19:21:08.888Z,-1.80
2018-03-16T19:23:35.287Z,-1.90
2018-03-16T19:26:02.420Z,-1.80
2018-03-16T19:28:29.651Z,-1.80
2018-03-16T19:30:56.590Z,-1.90
2018-03-16T19:33:22.906Z,-1.90
2018-03-16T19:35:49.250Z,-1.80
2018-03-16T19:38:16.461Z,-1.90
2018-03-16T19:40:42.682Z,-1.90
2018-03-16T19:43:09.167Z,-2.00
2018-03-16T19:45:37.456Z,-2.00
2018-03-16T19:48:04.556Z,-2.00
2018-03-16T19:50:30.841Z,-2.00
2018-03-16T19:53:02.926Z,-2.00
2018-03-16T19:55:30.075Z,-2.00
2018-03-16T19:57:57.099Z,-2.00
2018-03-16T20:00:24.323Z,-2.00
2018-03-16T20:02:50.778Z,-2.10
2018-03-16T20:05:18.018Z,-2.00
2018-03-16T20:07:46.072Z,-2.10
2018-03-16T20:10:12.611Z,-2.10
2018-03-16T20:12:45.977Z,-2.00
2018-03-16T20:15:13.565Z,-2.00
2018-03-16T20:17:41.830Z,-2.10
2018-03-16T20:20:09.118Z,-2.10
2018-03-16T20:22:36.381Z,-2.00
2018-03-16T20:25:02.711Z,-2.10
2018-03-16T20:27:29.307Z,-2.00
2018-03-16T20:29:56.947Z,-2.00
2018-03-16T20:32:23.514Z,-2.00
2018-03-16T20:34:50.634Z,-2.10
2018-03-16T20:37:17.864Z,-2.10
2018-03-16T20:39:44.122Z,-2.10
2018-03-16T20:42:10.408Z,-2.10
2018-03-16T20:44:36.733Z,-2.20
2018-03-16T20:47:03.771Z,-2.20
2018-03-16T20:49:30.427Z,-2.20
2018-03-16T20:54:49.883Z,-2.20
2018-03-16T20:57:17.010Z,-2.30
2018-03-16T20:59:43.429Z,-2.30
2018-03-16T21:02:09.869Z,-2.30
2018-03-16T21:04:37.034Z,-2.30
2018-03-16T21:07:04.148Z,-2.30
2018-03-16T21:09:31.216Z,-2.30
2018-03-16T21:11:57.517Z,-2.30
2018-03-16T21:14:23.800Z,-2.30
2018-03-16T21:16:50.875Z,-2.30
2018-03-16T21:19:17.339Z,-2.30
2018-03-16T21:21:44.311Z,-2.40
2018-03-16T21:24:11.766Z,-2.40
2018-03-16T21:26:38.816Z,-2.40
2018-03-16T21:29:05.892Z,-2.40
2018-03-16T21:31:32.249Z,-2.40
2018-03-16T21:33:58.706Z,-2.40
2018-03-16T21:36:25.373Z,-2.40
2018-03-16T21:38:51.650Z,-2.40
2018-03-16T21:41:18.823Z,-2.40
2018-03-16T21:43:45.790Z,-2.40
2018-03-16T21:46:12.067Z,-2.40
2018-03-16T21:48:38.398Z,-2.30
2018-03-16T21:51:04.861Z,-2.30
2018-03-16T21:53:31.940Z,-2.40
2018-03-16T21:55:58.306Z,-2.40
2018-03-16T21:58:24.762Z,-2.40
2018-03-16T22:00:51.760Z,-2.30
2018-03-16T22:03:18.063Z,-2.30
2018-03-16T22:05:44.356Z,-2.30
2018-03-16T22:08:11.419Z,-2.30
2018-03-16T22:10:38.415Z,-2.40
2018-03-16T22:13:04.707Z,-2.40
2018-03-16T22:15:31.424Z,-2.40
2018-03-16T22:17:57.865Z,-2.40
2018-03-16T22:20:24.898Z,-2.40
2018-03-16T22:22:52.012Z,-2.40
2018-03-16T22:25:18.252Z,-2.40
2018-03-16T22:27:44.461Z,-2.40
2018-03-16T22:30:10.733Z,-2.40
2018-03-16T22:32:37.839Z,-2.40
2018-03-16T22:35:04.112Z,-2.50
2018-03-16T22:37:31.077Z,-2.50
2018-03-16T22:39:57.342Z,-2.50
2018-03-16T22:42:23.687Z,-2.40
2018-03-16T22:44:50.011Z,-2.40
2018-03-16T22:47:16.479Z,-2.50
2018-03-16T22:49:43.594Z,-2.50
2018-03-16T22:52:10.773Z,-2.60
2018-03-16T22:54:37.840Z,-2.60
2018-03-16T22:57:04.105Z,-2.60
2018-03-16T22:59:30.446Z,-2.60
2018-03-16T23:01:56.969Z,-2.60
2018-03-16T23:04:23.421Z,-2.60
2018-03-16T23:06:51.143Z,-2.70
2018-03-16T23:09:17.312Z,-2.70
2018-03-16T23:11:44.359Z,-2.70
2018-03-16T23:14:11.326Z,-2.80
2018-03-16T23:16:37.765Z,-2.80
2018-03-16T23:19:04.146Z,-2.80
2018-03-16T23:21:30.410Z,-2.80
2018-03-16T23:23:56.674Z,-2.80
2018-03-16T23:26:22.992Z,-2.80
2018-03-16T23:28:49.241Z,-2.80
2018-03-16T23:31:15.508Z,-2.80
2018-03-16T23:33:42.687Z,-2.90
2018-03-16T23:36:08.966Z,-2.90
2018-03-16T23:38:35.382Z,-2.90
2018-03-16T23:41:01.724Z,-2.90
2018-03-16T23:43:27.932Z,-2.90
2018-03-16T23:45:54.167Z,-2.90
2018-03-16T23:48:20.438Z,-3.00
2018-03-16T23:50:46.682Z,-3.00
2018-03-16T23:53:13.000Z,-3.00
2018-03-16T23:55:39.297Z,-3.00
2018-03-16T23:58:05.510Z,-3.10
